Skagerak — SGCD — position and weather

sailwx.info

Track history (hours):
 
Tides and Currents Weather Stations Pressure Air Temp Water Temp Dewpoint Dewpoint Depression Visibility Wind Speed Wind Dir Waves Ship Positions

Oceanographic research ship Skagerak (Sweden)

Detailed information on ship capabilities available from University of Delaware's Ocean Information Center.

Last reported at 2018-Apr-17 14:47 UTC. Time now 2018-Apr-24 01:08 UTC.
Position N 55°58' E 016°28'.

Length 38 m; draft 3.8 m.

Type: Dredging. MMSI: 265280000.

Date/timePositionNaut miles runAvg speedWind from/ knotsBaromVisibWave heightAir tempDewpointWater temp
2018-Apr-17 14:47N 55°58' E 016°28'310.4
2018-Apr-17 14:30N 55°57' E 016°24'510.5
2018-Apr-17 14:00N 55°54' E 016°16'510.3
2018-Apr-17 13:30N 55°52' E 016°08'510.4
2018-Apr-17 13:00N 55°49' E 015°60'510.5
2018-Apr-17 12:30N 55°47' E 015°52'510.4
2018-Apr-17 12:00N 55°44' E 015°44'510.6
2018-Apr-17 11:30N 55°42' E 015°35'510.4
2018-Apr-17 11:00N 55°39' E 015°27'510.5
2018-Apr-17 10:30N 55°36' E 015°19'510.5
2018-Apr-17 10:00N 55°34' E 015°11'510.3
2018-Apr-17 09:30N 55°31' E 015°03'510.3
2018-Apr-17 09:00N 55°29' E 014°55'510.3
2018-Apr-17 08:30N 55°26' E 014°47'510.4
2018-Apr-17 08:00N 55°24' E 014°40'510.4
2018-Apr-17 07:30N 55°20' E 014°33'610.7
2018-Apr-17 06:59N 55°16' E 014°27'510.7
2018-Apr-17 06:30N 55°12' E 014°20'610.0
2018-Apr-17 05:57N 55°11' E 014°11'510.5
2018-Apr-17 05:30N 55°11' E 014°03'4410.1
2018-Apr-17 01:10N 55°16' E 012°47'210.2
2018-Apr-17 01:00N 55°17' E 012°44'5 8.9
2018-Apr-17 00:30N 55°20' E 012°38'510.2
2018-Apr-17 00:00N 55°25' E 012°40'510.3
2018-Apr-16 23:30N 55°30' E 012°43'510.5
2018-Apr-16 23:00N 55°34' E 012°49'510.8
2018-Apr-16 22:30N 55°38' E 012°55'5 9.5
2018-Apr-16 22:00N 55°43' E 012°53'510.5
2018-Apr-16 21:30N 55°47' E 012°48'510.4
2018-Apr-16 21:00N 55°52' E 012°45'510.4
2018-Apr-16 20:30N 55°57' E 012°42'510.2
2018-Apr-16 20:00N 56°02' E 012°39'5 9.5
2018-Apr-16 19:30N 56°06' E 012°34'5 9.5
2018-Apr-16 19:00N 56°10' E 012°29'5710.3
2018-Apr-16 13:29N 57°05' E 012°03'510.2
2018-Apr-16 13:00N 57°10' E 012°00'510.2
2018-Apr-16 12:30N 57°14' E 011°58'510.1
2018-Apr-16 12:00N 57°19' E 011°55'510.5
2018-Apr-16 11:30N 57°24' E 011°52'510.4
2018-Apr-16 11:00N 57°29' E 011°50'510.1
2018-Apr-16 10:30N 57°34' E 011°48'5 9.8
2018-Apr-16 10:00N 57°39' E 011°49'4 7.8
2018-Apr-16 09:30N 57°42' E 011°54'2 3.0
2018-Apr-16 09:00N 57°42' E 011°57'0 0.0
2018-Apr-16 08:30N 57°42' E 011°57'0 0.0
2018-Apr-16 08:00N 57°42' E 011°57'0 0.0
2018-Apr-16 07:30N 57°42' E 011°57'  
2018-Apr-08 14:05N 57°39' E 011°52'0 0.0
2018-Apr-08 14:00N 57°39' E 011°52'0 0.0
2018-Apr-08 13:30N 57°39' E 011°52'0 0.0
2018-Apr-08 13:00N 57°39' E 011°52'0 0.0
2018-Apr-08 12:30N 57°39' E 011°52'0 0.0
2018-Apr-08 12:00N 57°39' E 011°52'0 0.0
2018-Apr-08 11:20N 57°39' E 011°52'0 0.0
2018-Apr-08 11:00N 57°39' E 011°52'0 0.0
2018-Apr-08 10:30N 57°39' E 011°52'0 0.0
2018-Apr-08 10:00N 57°39' E 011°52'0 0.0
2018-Apr-08 09:30N 57°39' E 011°52'0 0.0
2018-Apr-08 09:00N 57°39' E 011°52'0 0.0
2018-Apr-08 08:30N 57°39' E 011°52'0 0.0
2018-Apr-08 08:00N 57°39' E 011°52'0 0.0
2018-Apr-08 07:30N 57°39' E 011°52'0 0.0
2018-Apr-08 07:00N 57°39' E 011°52'0 0.0
2018-Apr-08 06:30N 57°39' E 011°52'0 0.0
2018-Apr-08 06:00N 57°39' E 011°52'0 0.0
2018-Apr-08 05:30N 57°39' E 011°52'0 0.0
2018-Apr-08 05:00N 57°39' E 011°52'0 0.0
2018-Apr-08 04:30N 57°39' E 011°52'0 0.0
2018-Apr-08 04:00N 57°39' E 011°52'0 0.0
2018-Apr-08 03:30N 57°39' E 011°52'0 0.0
2018-Apr-08 03:00N 57°39' E 011°52'0 0.0
2018-Apr-08 02:30N 57°39' E 011°52'0 0.0
2018-Apr-08 02:00N 57°39' E 011°52'0 0.0
2018-Apr-08 01:30N 57°39' E 011°52'0 0.0
2018-Apr-08 01:00N 57°39' E 011°52'0 0.0
2018-Apr-08 00:30N 57°39' E 011°52'0 0.0
2018-Apr-08 00:00N 57°39' E 011°52'0 0.0
2018-Apr-07 23:30N 57°39' E 011°52'0 0.0
2018-Apr-07 23:00N 57°39' E 011°52'0 0.0
2018-Apr-07 22:30N 57°39' E 011°52'0 0.0
2018-Apr-07 21:41N 57°39' E 011°52'0 0.0
2018-Apr-07 21:30N 57°39' E 011°52'0 0.0
2018-Apr-07 21:00N 57°39' E 011°52'0 0.2
2018-Apr-07 20:30N 57°39' E 011°52'0 0.4
2018-Apr-07 20:00N 57°39' E 011°51'0 0.2
2018-Apr-07 19:30N 57°39' E 011°52'0 0.0
2018-Apr-07 19:00N 57°39' E 011°52'0 0.0
2018-Apr-07 18:30N 57°39' E 011°52'0 0.0
2018-Apr-07 18:00N 57°39' E 011°52'0 0.0
2018-Apr-07 17:30N 57°39' E 011°52'0 0.0
2018-Apr-07 17:00N 57°39' E 011°52'0 0.0
2018-Apr-07 16:30N 57°39' E 011°52'0 0.0
2018-Apr-07 16:00N 57°39' E 011°52'0 0.0
2018-Apr-07 15:30N 57°39' E 011°52'0 0.0
2018-Apr-07 15:00N 57°39' E 011°52'  
Track history (hours):
 
Tides and Currents Weather Stations Pressure Air Temp Water Temp Dewpoint Dewpoint Depression Visibility Wind Speed Wind Dir Waves Ship Positions

Oceanographic research ship Skagerak (Sweden)

Detailed information on ship capabilities available from University of Delaware's Ocean Information Center.

Last reported at 2018-Apr-17 14:47 UTC. Time now 2018-Apr-24 01:08 UTC.
Position N 55°58' E 016°28'.

Length 38 m; draft 3.8 m.

Type: Dredging. MMSI: 265280000.

Date/timePositionNaut miles runAvg speedWind from/ knotsBaromVisibWave heightAir tempDewpointWater temp
2018-Apr-17 14:47N 55°58' E 016°28'310.4
2018-Apr-17 14:30N 55°57' E 016°24'510.5
2018-Apr-17 14:00N 55°54' E 016°16'510.3
2018-Apr-17 13:30N 55°52' E 016°08'510.4
2018-Apr-17 13:00N 55°49' E 015°60'510.5
2018-Apr-17 12:30N 55°47' E 015°52'510.4
2018-Apr-17 12:00N 55°44' E 015°44'510.6
2018-Apr-17 11:30N 55°42' E 015°35'510.4
2018-Apr-17 11:00N 55°39' E 015°27'510.5
2018-Apr-17 10:30N 55°36' E 015°19'510.5
2018-Apr-17 10:00N 55°34' E 015°11'510.3
2018-Apr-17 09:30N 55°31' E 015°03'510.3
2018-Apr-17 09:00N 55°29' E 014°55'510.3
2018-Apr-17 08:30N 55°26' E 014°47'510.4
2018-Apr-17 08:00N 55°24' E 014°40'510.4
2018-Apr-17 07:30N 55°20' E 014°33'610.7
2018-Apr-17 06:59N 55°16' E 014°27'510.7
2018-Apr-17 06:30N 55°12' E 014°20'610.0
2018-Apr-17 05:57N 55°11' E 014°11'510.5
2018-Apr-17 05:30N 55°11' E 014°03'4410.1
2018-Apr-17 01:10N 55°16' E 012°47'210.2
2018-Apr-17 01:00N 55°17' E 012°44'5 8.9
2018-Apr-17 00:30N 55°20' E 012°38'510.2
2018-Apr-17 00:00N 55°25' E 012°40'510.3
2018-Apr-16 23:30N 55°30' E 012°43'510.5
2018-Apr-16 23:00N 55°34' E 012°49'510.8
2018-Apr-16 22:30N 55°38' E 012°55'5 9.5
2018-Apr-16 22:00N 55°43' E 012°53'510.5
2018-Apr-16 21:30N 55°47' E 012°48'510.4
2018-Apr-16 21:00N 55°52' E 012°45'510.4
2018-Apr-16 20:30N 55°57' E 012°42'510.2
2018-Apr-16 20:00N 56°02' E 012°39'5 9.5
2018-Apr-16 19:30N 56°06' E 012°34'5 9.5
2018-Apr-16 19:00N 56°10' E 012°29'5710.3
2018-Apr-16 13:29N 57°05' E 012°03'510.2
2018-Apr-16 13:00N 57°10' E 012°00'510.2
2018-Apr-16 12:30N 57°14' E 011°58'510.1
2018-Apr-16 12:00N 57°19' E 011°55'510.5
2018-Apr-16 11:30N 57°24' E 011°52'510.4
2018-Apr-16 11:00N 57°29' E 011°50'510.1
2018-Apr-16 10:30N 57°34' E 011°48'5 9.8
2018-Apr-16 10:00N 57°39' E 011°49'4 7.8
2018-Apr-16 09:30N 57°42' E 011°54'2 3.0
2018-Apr-16 09:00N 57°42' E 011°57'0 0.0
2018-Apr-16 08:30N 57°42' E 011°57'0 0.0
2018-Apr-16 08:00N 57°42' E 011°57'0 0.0
2018-Apr-16 07:30N 57°42' E 011°57'  
2018-Apr-08 14:05N 57°39' E 011°52'0 0.0
2018-Apr-08 14:00N 57°39' E 011°52'0 0.0
2018-Apr-08 13:30N 57°39' E 011°52'0 0.0
2018-Apr-08 13:00N 57°39' E 011°52'0 0.0
2018-Apr-08 12:30N 57°39' E 011°52'0 0.0
2018-Apr-08 12:00N 57°39' E 011°52'0 0.0
2018-Apr-08 11:20N 57°39' E 011°52'0 0.0
2018-Apr-08 11:00N 57°39' E 011°52'0 0.0
2018-Apr-08 10:30N 57°39' E 011°52'0 0.0
2018-Apr-08 10:00N 57°39' E 011°52'0 0.0
2018-Apr-08 09:30N 57°39' E 011°52'0 0.0
2018-Apr-08 09:00N 57°39' E 011°52'0 0.0
2018-Apr-08 08:30N 57°39' E 011°52'0 0.0
2018-Apr-08 08:00N 57°39' E 011°52'0 0.0
2018-Apr-08 07:30N 57°39' E 011°52'0 0.0
2018-Apr-08 07:00N 57°39' E 011°52'0 0.0
2018-Apr-08 06:30N 57°39' E 011°52'0 0.0
2018-Apr-08 06:00N 57°39' E 011°52'0 0.0
2018-Apr-08 05:30N 57°39' E 011°52'0 0.0
2018-Apr-08 05:00N 57°39' E 011°52'0 0.0
2018-Apr-08 04:30N 57°39' E 011°52'0 0.0
2018-Apr-08 04:00N 57°39' E 011°52'0 0.0
2018-Apr-08 03:30N 57°39' E 011°52'0 0.0
2018-Apr-08 03:00N 57°39' E 011°52'0 0.0
2018-Apr-08 02:30N 57°39' E 011°52'0 0.0
2018-Apr-08 02:00N 57°39' E 011°52'0 0.0
2018-Apr-08 01:30N 57°39' E 011°52'0 0.0
2018-Apr-08 01:00N 57°39' E 011°52'0 0.0
2018-Apr-08 00:30N 57°39' E 011°52'0 0.0
2018-Apr-08 00:00N 57°39' E 011°52'0 0.0
2018-Apr-07 23:30N 57°39' E 011°52'0 0.0
2018-Apr-07 23:00N 57°39' E 011°52'0 0.0
2018-Apr-07 22:30N 57°39' E 011°52'0 0.0
2018-Apr-07 21:41N 57°39' E 011°52'0 0.0
2018-Apr-07 21:30N 57°39' E 011°52'0 0.0
2018-Apr-07 21:00N 57°39' E 011°52'0 0.2
2018-Apr-07 20:30N 57°39' E 011°52'0 0.4
2018-Apr-07 20:00N 57°39' E 011°51'0 0.2
2018-Apr-07 19:30N 57°39' E 011°52'0 0.0
2018-Apr-07 19:00N 57°39' E 011°52'0 0.0
2018-Apr-07 18:30N 57°39' E 011°52'0 0.0
2018-Apr-07 18:00N 57°39' E 011°52'0 0.0
2018-Apr-07 17:30N 57°39' E 011°52'0 0.0
2018-Apr-07 17:00N 57°39' E 011°52'0 0.0
2018-Apr-07 16:30N 57°39' E 011°52'0 0.0
2018-Apr-07 16:00N 57°39' E 011°52'0 0.0
2018-Apr-07 15:30N 57°39' E 011°52'0 0.0
2018-Apr-07 15:00N 57°39' E 011°52'  

Dump ship's entire track history